createdAt,value
2022-08-13T00:00:11.946Z,88.37
2022-08-13T00:01:23.328Z,88.45
2022-08-13T00:02:29.593Z,88.48
2022-08-13T00:04:00.164Z,88.73
2022-08-13T00:05:41.753Z,88.47
2022-08-13T00:06:35.831Z,88.87
2022-08-13T00:07:45.174Z,88.79
2022-08-13T00:08:50.237Z,88.89
2022-08-13T00:09:55.422Z,88.96
2022-08-13T00:11:00.224Z,89.00
2022-08-13T00:12:24.354Z,89.09
2022-08-13T00:13:43.357Z,88.95
2022-08-13T00:14:48.433Z,89.41
2022-08-13T00:15:56.718Z,89.05
2022-08-13T00:17:02.330Z,89.32
2022-08-13T00:18:12.060Z,89.43
2022-08-13T00:19:28.248Z,89.01
2022-08-13T00:20:52.100Z,89.12
2022-08-13T00:22:29.523Z,89.06
2022-08-13T00:23:52.782Z,89.21
2022-08-13T00:24:54.181Z,89.21
2022-08-13T00:25:59.632Z,89.07
2022-08-13T00:27:03.521Z,89.28
2022-08-13T00:28:07.630Z,89.55
2022-08-13T00:29:14.589Z,89.91
2022-08-13T00:30:26.479Z,89.78
2022-08-13T00:31:36.118Z,89.92
2022-08-13T00:32:40.320Z,90.51
2022-08-13T00:33:48.765Z,90.13
2022-08-13T00:34:53.443Z,90.24
2022-08-13T00:35:58.463Z,90.16
2022-08-13T00:37:06.586Z,90.17
2022-08-13T00:38:15.580Z,90.59
2022-08-13T00:39:21.099Z,90.40
2022-08-13T00:40:32.223Z,90.60
2022-08-13T00:41:58.485Z,90.68
2022-08-13T00:43:06.448Z,90.85
2022-08-13T00:44:14.533Z,90.82
2022-08-13T00:45:20.785Z,90.92
2022-08-13T00:46:26.311Z,90.79
2022-08-13T00:47:51.848Z,91.17
2022-08-13T00:48:56.415Z,91.19
2022-08-13T00:50:02.153Z,90.98
2022-08-13T00:51:07.608Z,91.22
2022-08-13T00:52:11.892Z,91.02
2022-08-13T00:53:23.666Z,91.25
2022-08-13T00:54:29.269Z,91.07
2022-08-13T00:55:33.783Z,91.15
2022-08-13T00:56:38.045Z,91.13
2022-08-13T00:57:53.213Z,91.20
2022-08-13T00:59:01.428Z,90.91
2022-08-13T01:00:14.701Z,91.34
2022-08-13T01:01:28.317Z,91.21
2022-08-13T01:02:56.649Z,91.34
2022-08-13T01:04:11.278Z,91.39
2022-08-13T01:05:16.804Z,91.36
2022-08-13T01:06:24.378Z,91.24
2022-08-13T01:07:47.993Z,91.42
2022-08-13T01:08:59.245Z,91.31
2022-08-13T01:10:17.396Z,91.36
2022-08-13T01:11:25.885Z,91.25
2022-08-13T01:12:30.279Z,91.18
2022-08-13T01:13:37.436Z,91.60
2022-08-13T01:14:44.375Z,91.54
2022-08-13T01:15:52.281Z,91.77
2022-08-13T01:16:57.123Z,91.78
2022-08-13T01:18:01.850Z,91.91
2022-08-13T01:19:10.795Z,91.93
2022-08-13T01:20:33.241Z,92.04
2022-08-13T01:21:43.940Z,92.31
2022-08-13T01:22:54.243Z,92.11
2022-08-13T01:24:02.524Z,92.33
2022-08-13T01:25:08.055Z,92.36
2022-08-13T01:26:20.195Z,92.34
2022-08-13T01:27:27.748Z,92.29
2022-08-13T01:28:42.476Z,92.16
2022-08-13T01:29:50.908Z,92.45
2022-08-13T01:30:58.280Z,92.48
2022-08-13T01:32:02.527Z,92.53
2022-08-13T01:33:09.531Z,92.50
2022-08-13T01:34:24.345Z,92.64
2022-08-13T01:35:30.810Z,92.73
2022-08-13T01:36:55.528Z,92.88
2022-08-13T01:38:04.340Z,92.70
2022-08-13T01:39:18.056Z,92.83
2022-08-13T01:40:25.947Z,92.77
2022-08-13T01:41:30.174Z,92.69
2022-08-13T01:42:48.946Z,92.78
2022-08-13T01:44:17.041Z,92.41
2022-08-13T01:45:22.866Z,92.41
2022-08-13T01:46:48.842Z,92.57
2022-08-13T01:48:13.279Z,92.71
2022-08-13T01:49:43.830Z,92.51
2022-08-13T01:50:52.272Z,92.35
2022-08-13T01:51:56.480Z,92.73
2022-08-13T01:53:10.289Z,93.05
2022-08-13T01:54:39.242Z,92.90
2022-08-13T01:56:15.319Z,92.94
2022-08-13T01:57:22.196Z,92.83
2022-08-13T01:59:00.977Z,92.70
2022-08-13T02:00:27.457Z,92.74
2022-08-13T02:01:42.002Z,92.78
2022-08-13T02:02:47.861Z,92.93
2022-08-13T02:03:59.411Z,92.88
2022-08-13T02:05:04.756Z,92.71
2022-08-13T02:06:23.007Z,92.75
2022-08-13T02:08:02.394Z,92.78
2022-08-13T02:09:01.302Z,92.70
2022-08-13T02:10:05.910Z,92.57
2022-08-13T02:11:09.983Z,92.76
2022-08-13T02:12:33.007Z,92.98
2022-08-13T02:13:41.108Z,92.96
2022-08-13T02:14:46.426Z,93.11
2022-08-13T02:15:51.907Z,93.11
2022-08-13T02:16:56.853Z,93.15
2022-08-13T02:18:05.109Z,93.17
2022-08-13T02:19:19.733Z,93.18
2022-08-13T02:20:37.025Z,93.38
2022-08-13T02:21:45.737Z,93.21
2022-08-13T02:22:51.538Z,93.24
2022-08-13T02:24:03.007Z,93.29
2022-08-13T02:25:12.685Z,93.08
2022-08-13T02:26:20.421Z,93.15
2022-08-13T02:27:30.472Z,93.20
2022-08-13T02:28:42.206Z,93.40
2022-08-13T02:29:46.360Z,93.31
2022-08-13T02:30:55.345Z,93.41
2022-08-13T02:32:05.460Z,93.29
2022-08-13T02:33:21.402Z,93.33
2022-08-13T02:34:25.707Z,93.34
2022-08-13T02:35:46.633Z,93.23
2022-08-13T02:37:01.128Z,93.18
2022-08-13T02:38:29.883Z,93.04
2022-08-13T02:39:43.079Z,92.97
2022-08-13T02:41:15.141Z,92.96
2022-08-13T02:42:23.482Z,93.48
2022-08-13T02:43:29.055Z,93.67
2022-08-13T02:44:34.714Z,93.50
2022-08-13T02:45:43.923Z,93.93
2022-08-13T02:46:49.566Z,94.23
2022-08-13T02:47:56.636Z,94.38
2022-08-13T02:49:04.144Z,94.42
2022-08-13T02:51:26.936Z,94.56
2022-08-13T02:52:58.005Z,94.24
2022-08-13T02:54:03.117Z,94.28
2022-08-13T02:55:08.834Z,94.39
2022-08-13T02:56:17.993Z,94.49
2022-08-13T02:57:23.651Z,94.30
2022-08-13T02:58:27.918Z,94.25
2022-08-13T03:00:02.341Z,94.07
2022-08-13T03:00:58.689Z,93.97
2022-08-13T03:02:06.045Z,94.10
2022-08-13T03:03:11.799Z,93.89
2022-08-13T03:04:16.391Z,94.09
2022-08-13T03:05:22.578Z,94.21
2022-08-13T03:06:33.950Z,94.10
2022-08-13T03:07:51.166Z,94.45
2022-08-13T03:08:57.327Z,94.30
2022-08-13T03:10:04.548Z,94.42
2022-08-13T03:11:10.302Z,94.21
2022-08-13T03:12:17.449Z,94.26
2022-08-13T03:13:27.530Z,94.35
2022-08-13T03:14:35.600Z,94.27
2022-08-13T03:15:54.618Z,94.50
2022-08-13T03:17:05.231Z,94.20
2022-08-13T03:18:26.221Z,94.00
2022-08-13T03:19:30.257Z,94.25
2022-08-13T03:20:42.098Z,94.13
2022-08-13T03:21:47.345Z,93.95
2022-08-13T03:22:59.647Z,93.98
2022-08-13T03:24:07.046Z,93.92
2022-08-13T03:25:10.891Z,94.06
2022-08-13T03:26:14.996Z,94.21
2022-08-13T03:27:19.011Z,94.05
2022-08-13T03:28:24.761Z,94.44
2022-08-13T03:30:02.879Z,94.41
2022-08-13T03:30:55.906Z,94.59
2022-08-13T03:31:59.867Z,94.75
2022-08-13T03:33:18.535Z,94.79
2022-08-13T03:34:24.183Z,94.75
2022-08-13T03:35:42.720Z,94.96
2022-08-13T03:36:47.949Z,94.58
2022-08-13T03:38:01.300Z,94.90
2022-08-13T03:39:06.489Z,94.75
2022-08-13T03:40:15.110Z,94.75
2022-08-13T03:41:21.698Z,94.64
2022-08-13T03:42:30.526Z,94.87
2022-08-13T03:43:53.968Z,94.74
2022-08-13T03:44:58.417Z,94.75
2022-08-13T03:46:02.353Z,94.57
2022-08-13T03:47:31.680Z,94.77
2022-08-13T03:48:30.934Z,94.53
2022-08-13T03:49:37.944Z,94.47
2022-08-13T03:50:47.347Z,94.70
2022-08-13T03:51:59.666Z,94.72
2022-08-13T03:53:07.394Z,95.00
2022-08-13T03:54:26.202Z,94.62
2022-08-13T03:55:31.767Z,94.78
2022-08-13T03:56:56.670Z,94.67
2022-08-13T03:58:14.556Z,94.69
2022-08-13T03:59:19.049Z,94.87
2022-08-13T04:00:23.652Z,94.97
2022-08-13T04:01:31.062Z,95.48
2022-08-13T04:02:41.064Z,95.08
2022-08-13T04:03:47.463Z,95.02
2022-08-13T04:04:52.758Z,95.22
2022-08-13T04:06:01.847Z,95.31
2022-08-13T04:07:06.082Z,95.14
2022-08-13T04:08:14.734Z,95.26
2022-08-13T04:09:19.000Z,95.32
2022-08-13T04:10:27.534Z,95.37
2022-08-13T04:11:31.395Z,95.65
2022-08-13T04:12:40.042Z,95.76
2022-08-13T04:14:01.739Z,95.98
2022-08-13T04:15:09.265Z,95.98
2022-08-13T04:16:30.417Z,96.24
2022-08-13T04:17:38.454Z,96.43
2022-08-13T04:18:44.565Z,96.38
2022-08-13T04:19:48.726Z,96.55
2022-08-13T04:20:56.157Z,96.54
2022-08-13T04:22:03.305Z,96.95
2022-08-13T04:23:13.433Z,96.86
2022-08-13T04:24:21.133Z,97.01
2022-08-13T04:25:39.848Z,97.28
2022-08-13T04:26:48.016Z,97.59
2022-08-13T04:27:51.883Z,97.38
2022-08-13T04:28:56.436Z,97.40
2022-08-13T04:30:03.782Z,97.48
2022-08-13T04:31:08.011Z,97.62
2022-08-13T04:32:25.839Z,97.57
2022-08-13T04:34:31.378Z,97.74
2022-08-13T04:34:56.683Z,97.72
2022-08-13T04:36:05.052Z,97.94
2022-08-13T04:37:19.955Z,98.13
2022-08-13T04:38:25.877Z,98.33
2022-08-13T04:40:08.975Z,98.72
2022-08-13T04:40:57.559Z,98.56
2022-08-13T04:42:02.644Z,98.76
2022-08-13T04:43:08.212Z,99.01
2022-08-13T04:44:13.114Z,98.88
2022-08-13T04:45:23.575Z,98.90
2022-08-13T04:46:29.421Z,98.96
2022-08-13T04:47:33.430Z,98.95
2022-08-13T04:48:37.589Z,99.00
2022-08-13T04:49:50.881Z,99.12
2022-08-13T04:50:55.110Z,98.85
2022-08-13T04:51:59.099Z,99.22
2022-08-13T04:53:10.483Z,99.05
2022-08-13T04:54:14.396Z,98.86
2022-08-13T04:55:19.978Z,98.99
2022-08-13T04:56:24.119Z,98.83
2022-08-13T04:57:55.722Z,98.54
2022-08-13T04:58:54.164Z,98.73
2022-08-13T04:59:58.263Z,98.61
2022-08-13T05:01:53.852Z,98.82
2022-08-13T05:02:45.079Z,98.72
2022-08-13T05:03:55.230Z,98.99
2022-08-13T05:04:59.644Z,98.80
2022-08-13T05:06:03.549Z,98.96
2022-08-13T05:07:07.465Z,99.21
2022-08-13T05:08:13.524Z,99.42
2022-08-13T05:09:18.891Z,99.33
2022-08-13T05:10:30.325Z,99.28
2022-08-13T05:11:36.929Z,99.26
2022-08-13T05:12:46.622Z,99.07
2022-08-13T05:13:56.500Z,99.10
2022-08-13T05:15:01.053Z,99.03
2022-08-13T05:16:09.441Z,99.00
2022-08-13T05:17:17.411Z,99.23
2022-08-13T05:18:28.270Z,99.31
2022-08-13T05:19:39.238Z,99.26
2022-08-13T05:20:43.529Z,99.41
2022-08-13T05:21:59.201Z,99.49
2022-08-13T05:26:06.976Z,99.52
2022-08-13T05:26:09.278Z,99.26
2022-08-13T05:26:17.857Z,99.01
2022-08-13T05:27:24.773Z,99.18
2022-08-13T05:28:32.266Z,99.26
2022-08-13T05:30:03.643Z,99.46
2022-08-13T05:31:03.369Z,99.36
2022-08-13T05:32:09.921Z,99.62
2022-08-13T05:33:34.026Z,99.44
2022-08-13T05:34:49.863Z,99.53
2022-08-13T05:38:10.491Z,100.00
2022-08-13T05:38:15.593Z,99.90
2022-08-13T05:38:51.334Z,99.64
2022-08-13T05:39:55.406Z,99.96
2022-08-13T05:41:08.337Z,99.91
2022-08-13T05:42:12.479Z,99.94
2022-08-13T05:43:21.104Z,99.92
2022-08-13T05:44:25.894Z,100.00
2022-08-13T05:45:30.508Z,100.00
2022-08-13T05:46:34.284Z,100.00
2022-08-13T05:47:39.393Z,100.00
2022-08-13T05:48:58.952Z,100.00
2022-08-13T05:50:11.408Z,100.00
2022-08-13T05:51:15.607Z,100.00
2022-08-13T05:52:36.921Z,100.00
2022-08-13T05:56:04.048Z,100.00
2022-08-13T05:56:10.605Z,100.00
2022-08-13T05:56:38.372Z,100.00
2022-08-13T05:57:42.392Z,100.00
2022-08-13T05:58:49.473Z,100.00
2022-08-13T06:00:13.215Z,100.00
2022-08-13T06:01:40.319Z,100.00
2022-08-13T06:03:15.138Z,100.00
2022-08-13T06:04:37.091Z,100.00
2022-08-13T06:05:46.320Z,100.00
2022-08-13T06:06:52.157Z,100.00
2022-08-13T06:07:58.988Z,100.00
2022-08-13T06:09:08.884Z,100.00
2022-08-13T06:10:16.274Z,100.00
2022-08-13T06:12:25.708Z,100.00
2022-08-13T06:12:58.782Z,100.00
2022-08-13T06:14:05.524Z,100.00
2022-08-13T06:15:13.239Z,100.00
2022-08-13T06:16:22.764Z,100.00
2022-08-13T06:17:42.953Z,100.00
2022-08-13T06:18:52.816Z,100.00
2022-08-13T06:20:10.428Z,100.00
2022-08-13T06:21:33.090Z,100.00
2022-08-13T06:22:44.226Z,100.00
2022-08-13T06:23:50.106Z,100.00
2022-08-13T06:24:56.266Z,100.00
2022-08-13T06:26:02.122Z,100.00
2022-08-13T06:27:15.044Z,100.00
2022-08-13T06:28:29.922Z,100.00
2022-08-13T06:29:44.030Z,100.00
2022-08-13T06:30:55.318Z,100.00
2022-08-13T06:32:04.480Z,100.00
2022-08-13T06:34:08.745Z,100.00
2022-08-13T06:34:37.079Z,100.00
2022-08-13T06:35:47.625Z,100.00
2022-08-13T06:36:55.152Z,99.98
2022-08-13T06:38:00.265Z,100.00
2022-08-13T06:39:07.015Z,100.00
2022-08-13T06:40:35.945Z,100.00
2022-08-13T06:41:47.531Z,100.00
2022-08-13T06:43:07.477Z,99.94
2022-08-13T06:44:13.151Z,100.00
2022-08-13T06:45:21.665Z,100.00
2022-08-13T06:46:31.438Z,100.00
2022-08-13T06:47:38.668Z,100.00
2022-08-13T06:48:50.709Z,100.00
2022-08-13T06:50:00.662Z,100.00
2022-08-13T06:51:09.315Z,100.00
2022-08-13T06:52:17.378Z,100.00
2022-08-13T06:54:21.256Z,100.00
2022-08-13T06:54:45.850Z,100.00
2022-08-13T06:56:05.647Z,100.00
2022-08-13T06:57:22.049Z,100.00
2022-08-13T06:58:29.437Z,100.00
2022-08-13T07:00:05.149Z,100.00
2022-08-13T07:01:03.623Z,100.00
2022-08-13T07:02:12.275Z,100.00
2022-08-13T07:03:21.346Z,100.00
2022-08-13T07:04:28.754Z,100.00
2022-08-13T07:05:40.047Z,100.00
2022-08-13T07:06:48.673Z,100.00
2022-08-13T07:07:52.761Z,100.00
2022-08-13T07:09:02.422Z,100.00
2022-08-13T07:10:07.286Z,100.00
2022-08-13T07:11:24.580Z,100.00
2022-08-13T07:12:43.366Z,100.00
2022-08-13T07:13:51.546Z,100.00
2022-08-13T07:14:59.098Z,100.00
2022-08-13T07:16:04.501Z,100.00
2022-08-13T07:17:09.515Z,100.00
2022-08-13T07:18:14.440Z,100.00
2022-08-13T07:19:18.454Z,100.00
2022-08-13T07:20:25.099Z,99.91
2022-08-13T07:21:34.391Z,99.99
2022-08-13T07:24:38.760Z,99.87
2022-08-13T07:24:40.522Z,100.00
2022-08-13T07:25:56.333Z,99.95
2022-08-13T07:27:10.776Z,100.00
2022-08-13T07:28:26.271Z,100.00
2022-08-13T07:29:52.890Z,100.00
2022-08-13T07:30:58.520Z,100.00
2022-08-13T07:32:07.807Z,100.00
2022-08-13T07:33:14.718Z,100.00
2022-08-13T07:34:22.048Z,100.00
2022-08-13T07:35:51.573Z,100.00
2022-08-13T07:36:59.729Z,100.00
2022-08-13T07:38:05.047Z,100.00
2022-08-13T07:39:24.569Z,100.00
2022-08-13T07:40:30.624Z,100.00
2022-08-13T07:42:01.671Z,100.00
2022-08-13T07:43:11.887Z,100.00
2022-08-13T07:44:26.417Z,100.00
2022-08-13T07:46:26.243Z,100.00
2022-08-13T07:46:59.966Z,100.00
2022-08-13T07:48:27.611Z,100.00
2022-08-13T07:49:44.344Z,100.00
2022-08-13T07:51:03.200Z,100.00
2022-08-13T07:52:10.989Z,100.00
2022-08-13T07:53:15.993Z,100.00
2022-08-13T07:54:20.438Z,100.00
2022-08-13T07:56:06.922Z,100.00
2022-08-13T07:57:59.867Z,100.00
2022-08-13T07:59:22.150Z,100.00
2022-08-13T08:00:30.408Z,100.00
2022-08-13T08:02:19.403Z,100.00
2022-08-13T08:03:10.495Z,100.00
2022-08-13T08:04:29.563Z,100.00
2022-08-13T08:05:40.149Z,100.00
2022-08-13T08:06:49.896Z,100.00
2022-08-13T08:08:07.214Z,100.00
2022-08-13T08:09:30.451Z,100.00
2022-08-13T08:10:42.953Z,100.00
2022-08-13T08:12:08.251Z,100.00
2022-08-13T08:13:21.153Z,100.00
2022-08-13T08:14:30.768Z,100.00
2022-08-13T08:16:02.107Z,100.00
2022-08-13T08:18:12.905Z,100.00
2022-08-13T08:18:57.156Z,100.00
2022-08-13T08:20:13.739Z,100.00
2022-08-13T08:21:51.322Z,100.00
2022-08-13T08:22:51.587Z,100.00
2022-08-13T08:24:07.360Z,100.00
2022-08-13T08:25:26.067Z,100.00
2022-08-13T08:26:36.249Z,100.00
2022-08-13T08:27:52.713Z,100.00
2022-08-13T08:29:10.844Z,100.00
2022-08-13T08:30:20.033Z,100.00
2022-08-13T08:31:58.398Z,100.00
2022-08-13T08:32:55.598Z,100.00
2022-08-13T08:34:05.104Z,100.00
2022-08-13T08:35:10.714Z,100.00
2022-08-13T08:36:21.094Z,100.00
2022-08-13T08:37:59.270Z,100.00
2022-08-13T08:39:38.206Z,100.00
2022-08-13T08:41:08.509Z,100.00
2022-08-13T08:42:15.401Z,100.00
2022-08-13T08:43:22.368Z,100.00
2022-08-13T08:44:30.772Z,100.00
2022-08-13T08:46:10.844Z,100.00
2022-08-13T08:47:08.506Z,100.00
2022-08-13T08:48:17.844Z,100.00
2022-08-13T08:49:35.065Z,100.00
2022-08-13T08:50:40.096Z,100.00
2022-08-13T08:51:45.928Z,100.00
2022-08-13T08:53:16.446Z,100.00
2022-08-13T08:54:42.882Z,100.00
2022-08-13T08:55:52.299Z,100.00
2022-08-13T08:56:58.484Z,100.00
2022-08-13T08:58:33.361Z,100.00
2022-08-13T08:59:43.399Z,100.00
2022-08-13T09:01:00.647Z,98.85
2022-08-13T09:02:20.100Z,98.22
2022-08-13T09:03:28.455Z,96.85
2022-08-13T09:04:53.094Z,96.27
2022-08-13T09:06:06.825Z,95.57
2022-08-13T09:07:21.840Z,94.88
2022-08-13T09:08:28.146Z,94.84
2022-08-13T09:09:32.449Z,94.63
2022-08-13T09:10:38.519Z,94.41
2022-08-13T09:11:45.811Z,94.46
2022-08-13T09:12:57.901Z,94.44
2022-08-13T09:14:09.922Z,94.28
2022-08-13T09:15:19.114Z,93.38
2022-08-13T09:16:25.013Z,93.63
2022-08-13T09:17:40.231Z,93.70
2022-08-13T09:18:46.192Z,93.83
2022-08-13T09:19:57.254Z,93.67
2022-08-13T09:21:25.934Z,93.67
2022-08-13T09:22:27.314Z,93.40
2022-08-13T09:24:17.040Z,93.63
2022-08-13T09:25:00.777Z,93.13
2022-08-13T09:26:06.911Z,93.14
2022-08-13T09:27:16.819Z,93.67
2022-08-13T09:28:33.549Z,93.74
2022-08-13T09:29:40.217Z,93.52
2022-08-13T09:30:55.879Z,92.72
2022-08-13T09:32:02.041Z,91.53
2022-08-13T09:33:06.429Z,91.36
2022-08-13T09:34:14.365Z,90.67
2022-08-13T09:35:18.516Z,89.94
2022-08-13T09:36:26.314Z,89.30
2022-08-13T09:37:54.918Z,88.99
2022-08-13T09:38:57.460Z,87.63
2022-08-13T09:40:12.307Z,88.35
2022-08-13T09:41:52.481Z,88.46
2022-08-13T09:43:10.319Z,87.80
2022-08-13T09:44:18.790Z,88.39
2022-08-13T09:45:25.460Z,88.03
2022-08-13T09:46:35.812Z,88.01
2022-08-13T09:48:34.942Z,88.61
2022-08-13T09:49:05.201Z,88.56
2022-08-13T09:50:11.327Z,88.51
2022-08-13T09:52:02.374Z,88.68
2022-08-13T09:52:39.970Z,88.38
2022-08-13T09:53:51.629Z,88.63
2022-08-13T09:54:59.110Z,88.61
2022-08-13T09:56:04.493Z,88.92
2022-08-13T09:57:09.154Z,88.79
2022-08-13T09:58:18.635Z,89.05
2022-08-13T09:59:40.314Z,88.53
2022-08-13T10:00:51.819Z,87.89
2022-08-13T10:01:58.354Z,87.87
2022-08-13T10:03:08.134Z,87.90
2022-08-13T10:04:13.845Z,87.63
2022-08-13T10:05:20.458Z,87.35
2022-08-13T10:06:30.824Z,87.83
2022-08-13T10:07:47.249Z,87.55
2022-08-13T10:08:52.780Z,87.60
2022-08-13T10:10:31.325Z,86.70
2022-08-13T10:11:23.251Z,86.56
2022-08-13T10:12:47.360Z,86.45
2022-08-13T10:13:51.797Z,86.82
2022-08-13T10:14:57.528Z,86.96
2022-08-13T10:16:02.349Z,86.90
2022-08-13T10:17:06.556Z,86.21
2022-08-13T10:18:11.274Z,86.31
2022-08-13T10:19:18.655Z,86.67
2022-08-13T10:20:46.842Z,87.07
2022-08-13T10:21:51.698Z,86.80
2022-08-13T10:23:02.400Z,86.78
2022-08-13T10:24:07.264Z,86.50
2022-08-13T10:25:11.752Z,86.24
2022-08-13T10:26:20.037Z,85.99
2022-08-13T10:27:24.535Z,85.51
2022-08-13T10:28:50.644Z,85.07
2022-08-13T10:30:08.873Z,85.06
2022-08-13T10:31:48.740Z,84.19
2022-08-13T10:32:43.254Z,83.55
2022-08-13T10:33:57.989Z,83.61
2022-08-13T10:35:02.807Z,83.57
2022-08-13T10:36:10.434Z,83.19
2022-08-13T10:37:16.119Z,82.95
2022-08-13T10:38:29.916Z,83.07
2022-08-13T10:39:44.163Z,82.14
2022-08-13T10:41:07.803Z,81.52
2022-08-13T10:42:14.757Z,81.98
2022-08-13T10:43:24.761Z,81.41
2022-08-13T10:44:31.572Z,81.67
2022-08-13T10:45:36.171Z,81.31
2022-08-13T10:46:43.224Z,81.83
2022-08-13T10:48:00.884Z,81.83
2022-08-13T10:49:05.784Z,82.17
2022-08-13T10:50:10.126Z,82.50
2022-08-13T10:51:14.298Z,82.52
2022-08-13T10:52:22.642Z,82.25
2022-08-13T10:53:45.636Z,82.24
2022-08-13T10:54:50.526Z,81.69
2022-08-13T10:55:54.471Z,81.54
2022-08-13T10:57:00.307Z,81.10
2022-08-13T10:58:42.570Z,81.54
2022-08-13T10:59:38.934Z,81.50
2022-08-13T11:00:48.987Z,81.65
2022-08-13T11:01:55.769Z,81.27
2022-08-13T11:03:01.844Z,81.48
2022-08-13T11:04:06.781Z,80.97
2022-08-13T11:05:13.109Z,81.21
2022-08-13T11:06:17.618Z,80.72
2022-08-13T11:07:22.681Z,81.26
2022-08-13T11:08:32.053Z,81.33
2022-08-13T11:09:40.726Z,81.77
2022-08-13T11:11:30.081Z,81.76
2022-08-13T11:12:12.463Z,81.68
2022-08-13T11:13:26.253Z,81.55
2022-08-13T11:14:50.237Z,81.95
2022-08-13T11:15:58.814Z,82.20
2022-08-13T11:17:09.704Z,82.37
2022-08-13T11:18:21.076Z,81.84
2022-08-13T11:19:48.628Z,81.84
2022-08-13T11:22:21.046Z,81.23
2022-08-13T11:22:34.836Z,80.40
2022-08-13T11:23:38.891Z,80.06
2022-08-13T11:24:43.665Z,79.63
2022-08-13T11:26:22.808Z,79.36
2022-08-13T11:27:19.773Z,79.21
2022-08-13T11:28:25.037Z,78.86
2022-08-13T11:29:29.107Z,78.80
2022-08-13T11:30:41.959Z,78.97
2022-08-13T11:31:59.531Z,78.85
2022-08-13T11:33:13.199Z,79.27
2022-08-13T11:34:18.082Z,79.19
2022-08-13T11:35:22.519Z,79.20
2022-08-13T11:36:28.054Z,78.79
2022-08-13T11:37:40.879Z,78.32
2022-08-13T11:38:46.478Z,78.27
2022-08-13T11:39:57.173Z,78.52
2022-08-13T11:41:19.194Z,78.87
2022-08-13T11:42:25.609Z,78.98
2022-08-13T11:43:52.321Z,79.16
2022-08-13T11:44:56.446Z,78.79
2022-08-13T11:46:00.633Z,79.17
2022-08-13T11:47:09.940Z,79.02
2022-08-13T11:48:29.899Z,78.63
2022-08-13T11:49:42.292Z,78.31
2022-08-13T11:50:47.444Z,78.74
2022-08-13T11:51:53.094Z,78.31
2022-08-13T11:52:57.142Z,77.27
2022-08-13T11:54:29.490Z,77.25
2022-08-13T11:55:29.386Z,76.82
2022-08-13T11:56:33.672Z,76.80
2022-08-13T11:57:45.850Z,76.52
2022-08-13T11:58:58.446Z,76.46
2022-08-13T12:00:06.359Z,76.54
2022-08-13T12:01:11.983Z,76.20
2022-08-13T12:02:16.322Z,76.20
2022-08-13T12:03:23.013Z,75.39
2022-08-13T12:04:27.999Z,75.17
2022-08-13T12:05:32.088Z,75.53
2022-08-13T12:06:36.113Z,75.24
2022-08-13T12:07:45.286Z,75.40
2022-08-13T12:08:52.333Z,75.46
2022-08-13T12:10:38.940Z,75.37
2022-08-13T12:12:08.267Z,75.64
2022-08-13T12:13:07.263Z,75.42
2022-08-13T12:14:12.573Z,75.53
2022-08-13T12:15:19.128Z,75.21
2022-08-13T12:16:41.484Z,74.85
2022-08-13T12:17:52.057Z,75.03
2022-08-13T12:19:20.709Z,74.29
2022-08-13T12:20:28.644Z,73.57
2022-08-13T12:21:34.645Z,73.35
2022-08-13T12:22:44.758Z,73.19
2022-08-13T12:24:01.787Z,73.12
2022-08-13T12:25:32.803Z,72.65
2022-08-13T12:26:31.509Z,72.67
2022-08-13T12:27:42.579Z,72.56
2022-08-13T12:28:54.192Z,72.43
2022-08-13T12:29:58.238Z,72.34
2022-08-13T12:31:11.574Z,71.77
2022-08-13T12:32:18.711Z,71.24
2022-08-13T12:33:23.644Z,71.48
2022-08-13T12:34:31.138Z,71.06
2022-08-13T12:35:57.602Z,70.72
2022-08-13T12:37:01.393Z,70.83
2022-08-13T12:38:28.657Z,71.03
2022-08-13T12:39:34.414Z,70.99
2022-08-13T12:40:42.015Z,70.89
2022-08-13T12:41:48.324Z,70.42
2022-08-13T12:42:57.066Z,70.42
2022-08-13T12:44:09.272Z,70.15
2022-08-13T12:45:54.208Z,69.93
2022-08-13T12:46:51.098Z,70.53
2022-08-13T12:47:55.415Z,70.12
2022-08-13T12:48:59.546Z,70.47
2022-08-13T12:50:06.796Z,70.16
2022-08-13T12:51:11.685Z,70.31
2022-08-13T12:52:15.695Z,70.32
2022-08-13T12:53:44.454Z,70.46
2022-08-13T12:55:06.438Z,70.81
2022-08-13T12:56:08.335Z,70.79
2022-08-13T12:57:26.234Z,70.40
2022-08-13T12:58:32.792Z,70.15
2022-08-13T12:59:38.520Z,70.36
2022-08-13T13:00:57.770Z,70.91
2022-08-13T13:02:02.162Z,70.58
2022-08-13T13:03:13.053Z,70.81
2022-08-13T13:04:19.091Z,71.14
2022-08-13T13:05:23.713Z,71.79
2022-08-13T13:06:32.585Z,71.50
2022-08-13T13:08:06.593Z,71.94
2022-08-13T13:09:02.975Z,72.83
2022-08-13T13:10:08.475Z,74.01
2022-08-13T13:11:16.206Z,75.66
2022-08-13T13:12:21.272Z,76.89
2022-08-13T13:13:55.196Z,78.22
2022-08-13T13:15:12.071Z,79.40
2022-08-13T13:16:33.886Z,81.22
2022-08-13T13:18:10.665Z,82.97
2022-08-13T13:19:15.664Z,84.00
2022-08-13T13:20:20.726Z,86.01
2022-08-13T13:21:27.112Z,87.05
2022-08-13T13:22:39.100Z,88.17
2022-08-13T13:24:00.689Z,89.18
2022-08-13T13:25:07.393Z,90.15
2022-08-13T13:26:11.391Z,91.02
2022-08-13T13:27:15.605Z,91.30
2022-08-13T13:28:31.263Z,91.07
2022-08-13T13:29:39.097Z,91.91
2022-08-13T13:30:45.960Z,92.29
2022-08-13T13:32:38.587Z,92.71
2022-08-13T13:33:42.751Z,93.28
2022-08-13T13:34:54.288Z,94.11
2022-08-13T13:36:18.161Z,93.87
2022-08-13T13:37:22.790Z,94.23
2022-08-13T13:38:28.039Z,94.71
2022-08-13T13:39:43.496Z,95.58
2022-08-13T13:40:52.085Z,96.13
2022-08-13T13:41:56.120Z,96.74
2022-08-13T13:43:23.144Z,96.73
2022-08-13T13:44:38.010Z,97.07
2022-08-13T13:45:43.494Z,96.61
2022-08-13T13:46:49.518Z,97.09
2022-08-13T13:47:55.372Z,97.10
2022-08-13T13:48:59.337Z,97.14
2022-08-13T13:50:13.857Z,96.96
2022-08-13T13:51:21.244Z,97.29
2022-08-13T13:52:26.075Z,97.22
2022-08-13T13:54:09.466Z,96.97
2022-08-13T13:54:59.088Z,97.40
2022-08-13T13:56:09.115Z,97.65
2022-08-13T13:57:13.350Z,97.56
2022-08-13T13:58:49.530Z,97.87
2022-08-13T13:59:57.111Z,98.29
2022-08-13T14:01:03.003Z,97.61
2022-08-13T14:02:10.489Z,97.40
2022-08-13T14:03:24.329Z,98.09
2022-08-13T14:04:32.924Z,97.92
2022-08-13T14:05:57.396Z,98.26
2022-08-13T14:07:26.631Z,97.61
2022-08-13T14:08:31.591Z,97.98
2022-08-13T14:09:36.990Z,98.24
2022-08-13T14:10:44.894Z,98.80
2022-08-13T14:11:54.321Z,98.88
2022-08-13T14:13:22.937Z,99.38
2022-08-13T14:14:26.316Z,99.54
2022-08-13T14:15:36.825Z,100.00
2022-08-13T14:16:42.565Z,99.29
2022-08-13T14:18:06.921Z,99.79
2022-08-13T14:19:49.544Z,99.98
2022-08-13T14:20:44.328Z,99.08
2022-08-13T14:21:51.399Z,99.12
2022-08-13T14:22:57.728Z,99.12
2022-08-13T14:24:02.641Z,99.30
2022-08-13T14:25:12.539Z,99.83
2022-08-13T14:26:19.244Z,99.32
2022-08-13T14:27:27.467Z,99.33
2022-08-13T14:28:34.281Z,99.15
2022-08-13T14:29:38.043Z,99.78
2022-08-13T14:30:44.579Z,99.46
2022-08-13T14:31:54.630Z,99.53
2022-08-13T14:33:06.507Z,99.46
2022-08-13T14:34:11.994Z,99.17
2022-08-13T14:35:18.703Z,99.57
2022-08-13T14:36:49.421Z,98.78
2022-08-13T14:37:56.433Z,98.82
2022-08-13T14:39:05.750Z,98.65
2022-08-13T14:40:22.933Z,98.76
2022-08-13T14:41:42.666Z,98.40
2022-08-13T14:43:16.298Z,98.68
2022-08-13T14:44:54.980Z,98.22
2022-08-13T14:45:58.592Z,97.88
2022-08-13T14:47:08.574Z,98.10
2022-08-13T14:48:21.248Z,97.59
2022-08-13T14:49:40.802Z,97.39
2022-08-13T14:50:56.953Z,97.35
2022-08-13T14:52:04.311Z,97.90
2022-08-13T14:53:10.179Z,98.41
2022-08-13T14:54:20.048Z,97.97
2022-08-13T14:55:27.803Z,98.13
2022-08-13T14:56:36.965Z,97.95
2022-08-13T14:58:26.070Z,97.10
2022-08-13T14:59:26.134Z,96.98
2022-08-13T15:00:34.134Z,97.32
2022-08-13T15:01:42.279Z,97.04
2022-08-13T15:03:08.880Z,96.98
2022-08-13T15:04:12.644Z,96.76
2022-08-13T15:05:18.122Z,97.09
2022-08-13T15:06:35.162Z,97.41
2022-08-13T15:08:05.488Z,96.80
2022-08-13T15:09:13.396Z,96.74
2022-08-13T15:10:23.219Z,96.89
2022-08-13T15:11:32.729Z,97.16
2022-08-13T15:12:37.948Z,97.04
2022-08-13T15:13:55.546Z,97.21
2022-08-13T15:15:04.246Z,96.77
2022-08-13T15:16:14.909Z,96.84
2022-08-13T15:17:20.445Z,97.50
2022-08-13T15:18:28.860Z,97.46
2022-08-13T15:19:35.455Z,97.69
2022-08-13T15:20:59.593Z,97.83
2022-08-13T15:22:04.107Z,97.79